Time;durP1;ratioP1;P1;durP2;ratioP2;P2;SDS_P1;SDS_P2;PMS_P1;PMS_P2;Temp;Humidity;BMP_temperature;BMP_pressure;BME280_temperature;BME280_humidity;BME280_pressure;Samples;Min_cycle;Max_cycle;Signal;HPM_P1;HPM_P2
2023/09/25 04:42:37;;;;;;;5.78;2.88;;;;;;;;;;5099688;27;20160;-85
2023/09/25 04:45:03;;;;;;;6.05;2.88;;;;;;;;;;5076379;28;20037;-87
2023/09/25 04:47:29;;;;;;;8.45;3.53;;;;;;;;;;5077258;28;20036;-81
2023/09/25 04:49:55;;;;;;;9.82;5.07;;;;;;;;;;5071739;28;20025;-84
2023/09/25 04:52:23;;;;;;;6.30;3.58;;;;;;;;;;5083724;28;20110;-83
2023/09/25 04:54:49;;;;;;;3.95;2.53;;;;;;;;;;5083265;28;20107;-81
2023/09/25 04:57:14;;;;;;;5.28;3.38;;;;;;;;;;5080562;28;21098;-83
2023/09/25 04:59:40;;;;;;;7.45;4.30;;;;;;;;;;5084204;28;20468;-84
2023/09/25 05:02:05;;;;;;;5.82;3.05;;;;;;;;;;5081191;28;20107;-85
2023/09/25 05:04:31;;;;;;;4.55;2.58;;;;;;;;;;5070418;28;20029;-81
2023/09/25 05:06:57;;;;;;;4.88;2.75;;;;;;;;;;5078894;28;20480;-84
2023/09/25 05:09:23;;;;;;;6.88;3.40;;;;;;;;;;5073178;28;20032;-82
2023/09/25 05:11:48;;;;;;;6.72;4.35;;;;;;;;;;5076200;28;20028;-82
2023/09/25 05:14:14;;;;;;;8.25;3.72;;;;;;;;;;5069815;28;20147;-82
2023/09/25 05:16:39;;;;;;;8.45;4.10;;;;;;;;;;5069688;28;20040;-83
2023/09/25 05:19:05;;;;;;;4.57;2.88;;;;;;;;;;5071062;28;20492;-84
2023/09/25 05:21:30;;;;;;;5.90;3.78;;;;;;;;;;5072220;28;20017;-82
2023/09/25 05:23:55;;;;;;;4.72;2.55;;;;;;;;;;5069338;28;20040;-86
2023/09/25 05:26:21;;;;;;;5.03;3.05;;;;;;;;;;5073117;28;20036;-84
2023/09/25 05:28:46;;;;;;;6.50;3.97;;;;;;;;;;5070477;28;20032;-80
2023/09/25 05:31:12;;;;;;;6.78;4.50;;;;;;;;;;5070780;28;20529;-81
2023/09/25 05:33:37;;;;;;;6.75;3.63;;;;;;;;;;5074464;28;20394;-80
2023/09/25 05:36:03;;;;;;;11.52;2.88;;;;;;;;;;5067724;28;20016;-80
2023/09/25 05:38:29;;;;;;;5.53;3.97;;;;;;;;;;5068976;28;20380;-81
2023/09/25 05:40:54;;;;;;;5.28;2.95;;;;;;;;;;5082741;28;20511;-79
2023/09/25 05:43:19;;;;;;;4.45;3.00;;;;;;;;;;5085610;28;20021;-81
2023/09/25 05:45:45;;;;;;;6.65;2.53;;;;;;;;;;5086114;28;20038;-79
2023/09/25 05:48:10;;;;;;;6.00;3.63;;;;;;;;;;5093739;28;20463;-81
2023/09/25 05:50:36;;;;;;;4.25;3.05;;;;;;;;;;5094701;28;20142;-82
2023/09/25 05:53:03;;;;;;;6.18;4.57;;;;;;;;;;5071689;28;20495;-83
2023/09/25 05:55:28;;;;;;;5.20;3.47;;;;;;;;;;5084205;28;20023;-83
2023/09/25 05:57:55;;;;;;;6.53;3.67;;;;;;;;;;5063126;28;20490;-83
2023/09/25 06:00:22;;;;;;;4.85;3.20;;;;;;;;;;5063080;28;20053;-82
2023/09/25 06:02:48;;;;;;;7.07;4.18;;;;;;;;;;5083925;28;20039;-82
2023/09/25 06:05:13;;;;;;;7.13;3.10;;;;;;;;;;5076390;28;20025;-83
2023/09/25 06:07:39;;;;;;;8.05;4.20;;;;;;;;;;5052573;28;20112;-82
2023/09/25 06:10:06;;;;;;;7.38;4.05;;;;;;;;;;5060098;28;20032;-85
2023/09/25 06:12:31;;;;;;;5.25;3.45;;;;;;;;;;5073584;28;20052;-84
2023/09/25 06:14:57;;;;;;;9.20;4.97;;;;;;;;;;5080786;28;20062;-83
2023/09/25 06:17:26;;;;;;;5.55;3.85;;;;;;;;;;5074697;28;20033;-83
2023/09/25 06:19:53;;;;;;;5.95;3.90;;;;;;;;;;5073864;28;20024;-84
2023/09/25 06:22:19;;;;;;;7.25;4.00;;;;;;;;;;5076340;28;20476;-83
2023/09/25 06:24:45;;;;;;;6.97;4.40;;;;;;;;;;5073433;28;20052;-82
2023/09/25 06:27:10;;;;;;;7.25;4.93;;;;;;;;;;5075428;28;20070;-84
2023/09/25 06:29:36;;;;;;;7.65;4.53;;;;;;;;;;5072287;28;20016;-82
2023/09/25 06:32:02;;;;;;;8.82;4.22;;;;;;;;;;5073592;28;20024;-83
2023/09/25 06:34:27;;;;;;;9.88;3.95;;;;;;;;;;5081873;28;20024;-84
2023/09/25 06:36:53;;;;;;;6.53;3.78;;;;;;;;;;5062066;28;20041;-83
2023/09/25 06:39:19;;;;;;;6.55;3.75;;;;;;;;;;5071056;28;20028;-82
2023/09/25 06:41:44;;;;;;;6.22;3.53;;;;;;;;;;5073626;28;20051;-83
2023/09/25 06:44:12;;;;;;;4.60;2.65;;;;;;;;;;5089579;28;20031;-83
2023/09/25 06:46:37;;;;;;;2.97;2.33;;;;;;;;;;5085950;28;20031;-80
2023/09/25 06:49:03;;;;;;;4.65;2.85;;;;;;;;;;5054129;28;20025;-79
2023/09/25 06:51:29;;;;;;;5.95;3.33;;;;;;;;;;5081938;28;20024;-79
2023/09/25 06:53:55;;;;;;;8.65;3.60;;;;;;;;;;5073252;28;20028;-78
2023/09/25 06:56:20;;;;;;;8.32;3.92;;;;;;;;;;5062612;28;20369;-80
2023/09/25 06:58:46;;;;;;;6.60;3.45;;;;;;;;;;5067116;28;20031;-80
2023/09/25 07:01:11;;;;;;;7.80;4.55;;;;;;;;;;5084492;28;20047;-80
2023/09/25 07:03:37;;;;;;;8.13;4.07;;;;;;;;;;5079645;28;20097;-79
2023/09/25 07:06:02;;;;;;;5.35;3.30;;;;;;;;;;5087871;28;20062;-79
2023/09/25 07:08:28;;;;;;;7.13;3.40;;;;;;;;;;5089431;28;20036;-80
2023/09/25 07:10:53;;;;;;;7.40;4.28;;;;;;;;;;5085663;28;20028;-79
2023/09/25 07:13:20;;;;;;;6.03;3.22;;;;;;;;;;5069746;28;20039;-81
2023/09/25 07:15:47;;;;;;;8.98;4.18;;;;;;;;;;5083792;28;20032;-80
2023/09/25 07:18:13;;;;;;;8.57;4.05;;;;;;;;;;5086711;28;20039;-80
2023/09/25 07:20:38;;;;;;;3.58;2.92;;;;;;;;;;5079873;28;20038;-79
2023/09/25 07:23:04;;;;;;;6.53;3.58;;;;;;;;;;5082775;28;20024;-80
2023/09/25 07:25:29;;;;;;;5.45;3.58;;;;;;;;;;5089167;28;20032;-80
2023/09/25 07:27:55;;;;;;;5.22;3.03;;;;;;;;;;5085800;28;20078;-80
2023/09/25 07:30:21;;;;;;;5.78;3.63;;;;;;;;;;5067010;28;20061;-80
2023/09/25 07:32:47;;;;;;;3.97;2.20;;;;;;;;;;5089215;28;20028;-81
2023/09/25 07:35:15;;;;;;;6.05;3.30;;;;;;;;;;5069302;28;20031;-81
2023/09/25 07:37:41;;;;;;;4.05;2.83;;;;;;;;;;5065737;28;20025;-79
2023/09/25 07:40:11;;;;;;;5.22;2.65;;;;;;;;;;5087045;28;20050;-80
2023/09/25 07:42:38;;;;;;;5.30;3.05;;;;;;;;;;5086936;28;20016;-79
2023/09/25 07:45:06;;;;;;;5.80;3.55;;;;;;;;;;5087918;28;20019;-80
2023/09/25 07:47:32;;;;;;;3.72;2.50;;;;;;;;;;5088627;28;20032;-79
2023/09/25 07:49:58;;;;;;;11.02;3.55;;;;;;;;;;5085674;28;20032;-80
2023/09/25 07:52:24;;;;;;;5.22;3.20;;;;;;;;;;5087235;28;20419;-80
2023/09/25 07:54:51;;;;;;;4.00;2.95;;;;;;;;;;5078877;28;20028;-80
2023/09/25 07:57:21;;;;;;;4.38;2.65;;;;;;;;;;5089591;28;20058;-80
2023/09/25 07:59:47;;;;;;;5.35;3.08;;;;;;;;;;5088094;28;20050;-81
2023/09/25 08:02:18;;;;;;;3.35;2.67;;;;;;;;;;5069053;28;20587;-81
2023/09/25 08:04:44;;;;;;;8.27;3.60;;;;;;;;;;5084927;28;20031;-81
2023/09/25 08:07:10;;;;;;;4.00;2.80;;;;;;;;;;5071691;28;20053;-81
2023/09/25 08:09:36;;;;;;;5.03;2.60;;;;;;;;;;5076859;28;20024;-80
2023/09/25 08:12:01;;;;;;;4.22;3.00;;;;;;;;;;5086295;28;20775;-81
2023/09/25 08:14:27;;;;;;;3.10;1.90;;;;;;;;;;5072194;28;20033;-80
2023/09/25 08:16:52;;;;;;;6.28;2.53;;;;;;;;;;5079848;28;20027;-82
2023/09/25 08:19:18;;;;;;;3.20;1.95;;;;;;;;;;5084770;28;20020;-86
2023/09/25 08:21:44;;;;;;;4.20;2.15;;;;;;;;;;5090748;28;20020;-87
2023/09/25 08:24:10;;;;;;;5.68;3.95;;;;;;;;;;5088774;28;20059;-88
2023/09/25 08:26:35;;;;;;;5.10;2.05;;;;;;;;;;5089114;28;20468;-89
2023/09/25 08:29:05;;;;;;;3.05;2.05;;;;;;;;;;5089240;28;20032;-89
2023/09/25 08:31:31;;;;;;;2.85;2.35;;;;;;;;;;5090380;28;20085;-87
2023/09/25 08:33:57;;;;;;;5.55;2.60;;;;;;;;;;5086583;28;20028;-90
2023/09/25 08:36:22;;;;;;;2.47;1.80;;;;;;;;;;5086412;28;20039;-83
2023/09/25 08:38:48;;;;;;;2.72;1.63;;;;;;;;;;5075874;28;20480;-84
2023/09/25 08:41:14;;;;;;;3.67;2.13;;;;;;;;;;5089483;28;20111;-85
2023/09/25 08:43:43;;;;;;;4.88;2.35;;;;;;;;;;5089322;28;20032;-84
2023/09/25 08:46:10;;;;;;;2.47;1.65;;;;;;;;;;5089941;28;20022;-83
2023/09/25 08:48:35;;;;;;;2.75;1.80;;;;;;;;;;5088993;28;20502;-84
2023/09/25 08:51:01;;;;;;;4.43;2.47;;;;;;;;;;5079833;28;20024;-86
2023/09/25 08:53:29;;;;;;;3.33;1.90;;;;;;;;;;5068936;28;20056;-85
2023/09/25 08:55:56;;;;;;;4.85;2.15;;;;;;;;;;5081672;28;20028;-85
2023/09/25 08:58:24;;;;;;;2.95;1.95;;;;;;;;;;5087741;28;20055;-82
2023/09/25 09:00:50;;;;;;;2.28;1.50;;;;;;;;;;5085992;28;20024;-86
2023/09/25 09:03:15;;;;;;;3.15;1.67;;;;;;;;;;5088643;28;20403;-84
2023/09/25 09:05:40;;;;;;;3.03;1.85;;;;;;;;;;5087923;28;20103;-83
2023/09/25 09:08:06;;;;;;;3.47;1.88;;;;;;;;;;5088732;28;20031;-85
2023/09/25 09:10:37;;;;;;;2.30;1.67;;;;;;;;;;5086670;28;20020;-82
2023/09/25 09:13:12;;;;;;;4.18;1.70;;;;;;;;;;5086151;28;20082;-84
2023/09/25 09:15:39;;;;;;;2.95;1.52;;;;;;;;;;5088365;28;20089;-84
2023/09/25 09:18:25;;;;;;;2.17;1.60;;;;;;;;;;5089712;28;20085;-84
2023/09/25 09:20:51;;;;;;;2.92;1.85;;;;;;;;;;5066603;28;20494;-83
2023/09/25 09:23:17;;;;;;;2.97;1.75;;;;;;;;;;5089927;28;20111;-84
2023/09/25 09:25:46;;;;;;;2.28;1.75;;;;;;;;;;5086052;28;20147;-84
2023/09/25 09:28:12;;;;;;;1.55;1.30;;;;;;;;;;5082973;28;20400;-81
2023/09/25 09:30:38;;;;;;;2.95;2.00;;;;;;;;;;5087334;28;20032;-84
2023/09/25 09:33:04;;;;;;;2.65;1.63;;;;;;;;;;5090002;28;20487;-84
2023/09/25 09:35:30;;;;;;;3.63;1.63;;;;;;;;;;5089867;28;20362;-86
2023/09/25 09:37:57;;;;;;;1.77;1.60;;;;;;;;;;5093784;28;20039;-85
2023/09/25 09:40:26;;;;;;;1.98;1.60;;;;;;;;;;5080544;28;20028;-85
2023/09/25 09:42:53;;;;;;;2.78;1.70;;;;;;;;;;5086310;28;20025;-86
2023/09/25 09:45:20;;;;;;;1.52;1.40;;;;;;;;;;5080512;28;20024;-85
2023/09/25 09:47:48;;;;;;;2.80;2.00;;;;;;;;;;5074382;28;20061;-85
2023/09/25 09:50:19;;;;;;;1.27;1.17;;;;;;;;;;5074247;28;20464;-88
2023/09/25 09:52:45;;;;;;;2.25;1.50;;;;;;;;;;5082963;28;20089;-85
2023/09/25 09:55:12;;;;;;;2.38;1.52;;;;;;;;;;5087870;28;20106;-85
2023/09/25 09:57:39;;;;;;;2.60;1.50;;;;;;;;;;5078637;28;20472;-87
2023/09/25 10:00:07;;;;;;;1.38;1.27;;;;;;;;;;5088615;28;20027;-85
2023/09/25 10:02:33;;;;;;;2.35;1.23;;;;;;;;;;5089048;28;20022;-83
2023/09/25 10:04:59;;;;;;;3.45;1.73;;;;;;;;;;5091308;28;20091;-86
2023/09/25 10:07:26;;;;;;;1.92;1.50;;;;;;;;;;5082216;28;20033;-85
2023/09/25 10:09:59;;;;;;;1.80;1.30;;;;;;;;;;5093331;28;20028;-83
2023/09/25 10:12:49;;;;;;;2.35;1.48;;;;;;;;;;5093330;28;20482;-86
2023/09/25 10:15:22;;;;;;;1.55;0.95;;;;;;;;;;5091190;28;20035;-84
2023/09/25 10:17:48;;;;;;;1.50;1.00;;;;;;;;;;5091738;28;20103;-86
2023/09/25 10:20:45;;;;;;;1.42;1.10;;;;;;;;;;5092620;28;20024;-85
2023/09/25 10:23:18;;;;;;;2.00;1.40;;;;;;;;;;5054904;28;20034;-84
2023/09/25 10:25:50;;;;;;;1.27;0.85;;;;;;;;;;5069559;28;20077;-86
2023/09/25 10:28:24;;;;;;;1.20;0.82;;;;;;;;;;5089838;28;20536;-85
2023/09/25 10:30:51;;;;;;;2.45;1.25;;;;;;;;;;5072841;28;20030;-87
2023/09/25 10:33:18;;;;;;;1.80;1.33;;;;;;;;;;5073204;28;20016;-84
2023/09/25 10:35:49;;;;;;;3.33;1.13;;;;;;;;;;5087691;28;20024;-85
2023/09/25 10:38:25;;;;;;;1.33;1.05;;;;;;;;;;5090010;28;20027;-85
2023/09/25 10:40:54;;;;;;;7.63;1.25;;;;;;;;;;5092768;28;20040;-86
2023/09/25 10:43:23;;;;;;;1.83;1.10;;;;;;;;;;5090960;28;20029;-85
2023/09/25 10:45:50;;;;;;;;;;;;;;;;;;5093066;28;20028;-85
2023/09/25 10:48:16;;;;;;;4.47;1.42;;;;;;;;;;5070952;28;19961;-85
2023/09/25 10:50:43;;;;;;;2.22;1.17;;;;;;;;;;5071435;28;20038;-85
2023/09/25 10:53:13;;;;;;;2.38;1.52;;;;;;;;;;5081319;28;20114;-85
2023/09/25 10:55:39;;;;;;;1.92;1.20;;;;;;;;;;5091955;28;20027;-87
2023/09/25 10:58:06;;;;;;;1.60;1.50;;;;;;;;;;5092126;28;20421;-84
2023/09/25 11:00:35;;;;;;;1.42;1.25;;;;;;;;;;5091218;28;20349;-86
2023/09/25 11:03:04;;;;;;;2.33;1.35;;;;;;;;;;5089128;28;20024;-86
2023/09/25 11:05:30;;;;;;;2.13;1.63;;;;;;;;;;5086495;28;20461;-85
2023/09/25 11:07:56;;;;;;;1.83;1.33;;;;;;;;;;5089484;28;20365;-84
2023/09/25 11:10:28;;;;;;;1.50;1.27;;;;;;;;;;5091013;28;20103;-85
2023/09/25 11:12:57;;;;;;;2.25;1.58;;;;;;;;;;5084896;28;20036;-85
2023/09/25 11:15:25;;;;;;;3.85;1.73;;;;;;;;;;5087164;28;20480;-87
2023/09/25 11:17:51;;;;;;;1.88;1.25;;;;;;;;;;5071257;28;20066;-86
2023/09/25 11:20:19;;;;;;;2.05;1.30;;;;;;;;;;5089062;28;20058;-85
2023/09/25 11:22:48;;;;;;;1.88;1.27;;;;;;;;;;5086976;28;20107;-84
2023/09/25 11:25:16;;;;;;;2.95;1.65;;;;;;;;;;5088711;28;20028;-85
2023/09/25 11:27:55;;;;;;;2.15;1.40;;;;;;;;;;5071573;28;20028;-86
2023/09/25 11:30:27;;;;;;;1.60;1.05;;;;;;;;;;5087165;28;20025;-84
2023/09/25 11:32:52;;;;;;;2.70;1.23;;;;;;;;;;5092397;28;20069;-85
2023/09/25 11:35:19;;;;;;;1.85;1.25;;;;;;;;;;5084984;28;20028;-86
2023/09/25 11:38:01;;;;;;;1.60;1.30;;;;;;;;;;5070491;28;20471;-86
2023/09/25 11:40:28;;;;;;;5.72;1.38;;;;;;;;;;5066424;28;20091;-86
2023/09/25 11:42:54;;;;;;;1.73;1.35;;;;;;;;;;5091743;28;20068;-86
2023/09/25 11:45:20;;;;;;;1.63;1.00;;;;;;;;;;5071851;28;20024;-84
2023/09/25 11:47:47;;;;;;;1.17;0.80;;;;;;;;;;5086236;28;20040;-86
2023/09/25 11:50:14;;;;;;;1.88;1.08;;;;;;;;;;5086238;28;20016;-87
2023/09/25 11:52:46;;;;;;;1.27;1.10;;;;;;;;;;5083679;28;20367;-86
2023/09/25 11:55:14;;;;;;;3.00;1.50;;;;;;;;;;5070241;28;20040;-83
2023/09/25 11:57:44;;;;;;;1.70;1.35;;;;;;;;;;5063930;28;20464;-83
2023/09/25 12:00:16;;;;;;;2.15;1.48;;;;;;;;;;5085740;28;20028;-85
2023/09/25 12:02:44;;;;;;;1.60;1.30;;;;;;;;;;5068935;28;20101;-84
2023/09/25 12:05:10;;;;;;;1.75;1.30;;;;;;;;;;5083569;28;20031;-84
2023/09/25 12:07:36;;;;;;;1.83;1.02;;;;;;;;;;5077938;28;20387;-84
2023/09/25 12:10:07;;;;;;;1.75;1.13;;;;;;;;;;5088367;28;20027;-82
2023/09/25 12:12:34;;;;;;;1.70;1.10;;;;;;;;;;5082482;28;20039;-84
2023/09/25 12:15:02;;;;;;;2.30;1.40;;;;;;;;;;5089567;28;20034;-86
2023/09/25 12:17:31;;;;;;;1.65;1.30;;;;;;;;;;5071060;28;20037;-84
2023/09/25 12:19:57;;;;;;;2.40;1.10;;;;;;;;;;5075901;28;20023;-82
2023/09/25 12:22:23;;;;;;;2.38;1.33;;;;;;;;;;5086391;28;20070;-82
2023/09/25 12:24:49;;;;;;;1.88;1.25;;;;;;;;;;5079751;28;20044;-82
2023/09/25 12:27:14;;;;;;;2.67;1.55;;;;;;;;;;5084504;28;20025;-84
2023/09/25 12:29:39;;;;;;;2.25;1.20;;;;;;;;;;5084127;28;20114;-83
2023/09/25 12:32:05;;;;;;;2.05;1.40;;;;;;;;;;5081185;28;20088;-82
2023/09/25 12:34:30;;;;;;;2.17;1.23;;;;;;;;;;5087626;28;20498;-81
2023/09/25 12:36:56;;;;;;;2.00;1.38;;;;;;;;;;5080210;28;20021;-82
2023/09/25 12:39:21;;;;;;;2.08;1.67;;;;;;;;;;5084717;28;20071;-81
2023/09/25 12:41:47;;;;;;;3.80;2.03;;;;;;;;;;5081177;28;20048;-82
2023/09/25 12:44:12;;;;;;;3.45;1.80;;;;;;;;;;5079802;28;20020;-82
2023/09/25 12:46:38;;;;;;;7.10;2.40;;;;;;;;;;5077716;28;20016;-82
2023/09/25 12:49:04;;;;;;;4.05;1.80;;;;;;;;;;5083775;28;20077;-81
2023/09/25 12:51:29;;;;;;;4.75;2.20;;;;;;;;;;5085559;28;20025;-82
2023/09/25 12:53:55;;;;;;;2.28;1.58;;;;;;;;;;5084021;28;20532;-84
2023/09/25 12:56:21;;;;;;;3.17;1.85;;;;;;;;;;5066725;28;20032;-83
2023/09/25 12:58:46;;;;;;;3.38;2.40;;;;;;;;;;5076138;28;20027;-83
2023/09/25 13:01:12;;;;;;;3.90;2.72;;;;;;;;;;5072641;28;20071;-79
2023/09/25 13:03:37;;;;;;;1.98;1.67;;;;;;;;;;5072091;28;20029;-79
2023/09/25 13:06:03;;;;;;;3.80;1.88;;;;;;;;;;5069434;28;20041;-78
2023/09/25 13:08:28;;;;;;;3.97;2.03;;;;;;;;;;5094289;28;20111;-80
2023/09/25 13:10:54;;;;;;;5.18;2.33;;;;;;;;;;5086100;28;20036;-84
2023/09/25 13:13:19;;;;;;;2.90;2.00;;;;;;;;;;5073857;28;20039;-86
2023/09/25 13:15:45;;;;;;;2.33;1.55;;;;;;;;;;5082402;28;20059;-88
2023/09/25 13:18:10;;;;;;;5.13;2.45;;;;;;;;;;5086587;28;20024;-86
2023/09/25 13:20:36;;;;;;;2.65;1.63;;;;;;;;;;5070110;28;20374;-83
2023/09/25 13:23:01;;;;;;;4.50;2.15;;;;;;;;;;5092598;28;20031;-83
2023/09/25 13:25:27;;;;;;;2.65;1.70;;;;;;;;;;5089919;28;20024;-83
2023/09/25 13:27:52;;;;;;;3.17;1.90;;;;;;;;;;5088110;28;20053;-81
2023/09/25 13:30:20;;;;;;;3.38;2.53;;;;;;;;;;5082325;28;20017;-82
2023/09/25 13:32:45;;;;;;;2.47;1.98;;;;;;;;;;5083505;28;20533;-83
2023/09/25 13:35:11;;;;;;;5.82;2.53;;;;;;;;;;5082799;28;20028;-84
2023/09/25 13:37:37;;;;;;;3.80;1.90;;;;;;;;;;5075178;28;20034;-80
2023/09/25 13:40:05;;;;;;;3.25;2.17;;;;;;;;;;5090486;28;20020;-79
2023/09/25 13:42:30;;;;;;;3.28;2.03;;;;;;;;;;5068680;28;20032;-80
2023/09/25 13:44:56;;;;;;;2.63;2.13;;;;;;;;;;5087322;28;20036;-80
2023/09/25 13:47:21;;;;;;;4.15;2.08;;;;;;;;;;5086765;28;20042;-80
2023/09/25 13:49:47;;;;;;;3.42;2.05;;;;;;;;;;5085926;28;20443;-80
2023/09/25 13:52:13;;;;;;;2.60;1.63;;;;;;;;;;5078072;28;20036;-80
2023/09/25 13:54:38;;;;;;;2.40;1.52;;;;;;;;;;5086912;28;20115;-80
2023/09/25 13:57:04;;;;;;;2.90;2.00;;;;;;;;;;5087703;28;20035;-81
2023/09/25 13:59:29;;;;;;;3.20;2.17;;;;;;;;;;5091052;28;20103;-80
2023/09/25 14:01:55;;;;;;;2.42;2.08;;;;;;;;;;5091039;28;20127;-81
2023/09/25 14:04:20;;;;;;;3.08;1.63;;;;;;;;;;5085260;28;20035;-80
2023/09/25 14:06:45;;;;;;;3.15;2.13;;;;;;;;;;5080242;28;20027;-80
2023/09/25 14:09:11;;;;;;;4.50;2.30;;;;;;;;;;5088034;28;20020;-81
2023/09/25 14:11:37;;;;;;;3.00;1.60;;;;;;;;;;5089210;28;20032;-80
2023/09/25 14:14:03;;;;;;;2.15;1.55;;;;;;;;;;5084167;28;20055;-80
2023/09/25 14:16:28;;;;;;;2.53;1.95;;;;;;;;;;5092907;28;20032;-80
2023/09/25 14:18:54;;;;;;;3.25;1.88;;;;;;;;;;5087742;28;20032;-80
2023/09/25 14:21:20;;;;;;;2.58;1.52;;;;;;;;;;5093148;28;20051;-81
2023/09/25 14:23:48;;;;;;;2.42;1.60;;;;;;;;;;5084867;28;20103;-80
2023/09/25 14:26:13;;;;;;;2.20;1.77;;;;;;;;;;5089808;28;20463;-80
2023/09/25 14:28:39;;;;;;;2.80;1.88;;;;;;;;;;5082525;28;20054;-81
2023/09/25 14:31:04;;;;;;;7.05;1.80;;;;;;;;;;5089941;28;20103;-81
2023/09/25 14:33:34;;;;;;;2.95;1.40;;;;;;;;;;5086140;28;20051;-81
2023/09/25 14:36:01;;;;;;;2.60;1.65;;;;;;;;;;5078159;28;20026;-81
2023/09/25 14:38:26;;;;;;;2.30;1.50;;;;;;;;;;5089456;28;20036;-80
2023/09/25 14:40:52;;;;;;;3.03;2.05;;;;;;;;;;5088493;28;20449;-80
2023/09/25 14:43:18;;;;;;;3.33;2.15;;;;;;;;;;5088153;28;20079;-82
2023/09/25 14:45:44;;;;;;;4.63;2.00;;;;;;;;;;5086957;28;20032;-81
2023/09/25 14:48:13;;;;;;;2.20;1.60;;;;;;;;;;5068787;28;20422;-80
2023/09/25 14:50:38;;;;;;;1.98;1.67;;;;;;;;;;5087570;28;20032;-80
2023/09/25 14:53:04;;;;;;;2.58;1.63;;;;;;;;;;5087024;28;20051;-81
2023/09/25 14:55:30;;;;;;;4.43;1.92;;;;;;;;;;5072255;28;20036;-81
2023/09/25 14:57:55;;;;;;;8.82;1.73;;;;;;;;;;5085982;28;20028;-80
2023/09/25 15:00:21;;;;;;;3.88;1.83;;;;;;;;;;5068948;28;20476;-80
2023/09/25 15:02:47;;;;;;;2.42;1.73;;;;;;;;;;5084097;28;20082;-80
2023/09/25 15:05:13;;;;;;;3.88;1.98;;;;;;;;;;5091281;28;20028;-82
2023/09/25 15:07:39;;;;;;;3.97;2.38;;;;;;;;;;5087730;28;20024;-81
2023/09/25 15:10:07;;;;;;;3.35;2.00;;;;;;;;;;5086865;28;20031;-80
2023/09/25 15:12:33;;;;;;;2.08;1.45;;;;;;;;;;5083945;28;20032;-81
2023/09/25 15:14:58;;;;;;;2.70;1.45;;;;;;;;;;5087081;28;20024;-80
2023/09/25 15:17:27;;;;;;;2.35;1.75;;;;;;;;;;5075449;28;20523;-81
2023/09/25 15:19:53;;;;;;;2.83;1.70;;;;;;;;;;5088050;28;20031;-80
2023/09/25 15:22:19;;;;;;;3.38;1.85;;;;;;;;;;5086270;28;20033;-80
2023/09/25 15:24:44;;;;;;;2.63;1.88;;;;;;;;;;5087411;28;20028;-80
2023/09/25 15:27:09;;;;;;;3.20;2.25;;;;;;;;;;5084364;28;20073;-80
2023/09/25 15:29:37;;;;;;;4.45;2.28;;;;;;;;;;5089604;28;20024;-80
2023/09/25 15:32:04;;;;;;;3.38;2.30;;;;;;;;;;5085373;28;20450;-81
2023/09/25 15:34:30;;;;;;;2.05;1.52;;;;;;;;;;5089294;28;20426;-80
2023/09/25 15:36:55;;;;;;;1.65;1.23;;;;;;;;;;5069291;28;20036;-80
2023/09/25 15:39:21;;;;;;;3.35;1.67;;;;;;;;;;5090880;28;20024;-81
2023/09/25 15:41:46;;;;;;;2.30;1.63;;;;;;;;;;5087021;28;20101;-81
2023/09/25 15:44:12;;;;;;;4.75;1.88;;;;;;;;;;5072467;28;20016;-81
2023/09/25 15:46:37;;;;;;;3.33;1.35;;;;;;;;;;5079485;28;20052;-81
2023/09/25 15:49:02;;;;;;;7.38;2.78;;;;;;;;;;5076475;28;20464;-82
2023/09/25 15:51:28;;;;;;;3.67;1.98;;;;;;;;;;5083234;28;20021;-83
2023/09/25 15:53:53;;;;;;;4.40;2.05;;;;;;;;;;5090454;28;20020;-81
2023/09/25 15:56:19;;;;;;;3.08;2.03;;;;;;;;;;5085835;28;20020;-85
2023/09/25 15:58:44;;;;;;;2.92;1.80;;;;;;;;;;5089621;28;20077;-82
2023/09/25 16:01:10;;;;;;;2.88;2.10;;;;;;;;;;5087165;28;20027;-82
2023/09/25 16:03:37;;;;;;;3.40;2.55;;;;;;;;;;5083079;28;20032;-87
2023/09/25 16:06:03;;;;;;;2.90;1.58;;;;;;;;;;5075393;28;20032;-81
2023/09/25 16:08:28;;;;;;;2.90;1.85;;;;;;;;;;5075589;28;20024;-81
2023/09/25 16:10:54;;;;;;;2.15;1.75;;;;;;;;;;5073785;28;20027;-81
2023/09/25 16:13:19;;;;;;;5.45;2.83;;;;;;;;;;5067528;28;20564;-83
2023/09/25 16:15:44;;;;;;;2.63;1.70;;;;;;;;;;5057717;28;20036;-81
2023/09/25 16:18:10;;;;;;;9.40;2.83;;;;;;;;;;5056545;28;20120;-81
2023/09/25 16:20:37;;;;;;;3.60;2.10;;;;;;;;;;5079744;28;20032;-80
2023/09/25 16:23:03;;;;;;;3.60;2.47;;;;;;;;;;5065905;28;20031;-81
2023/09/25 16:25:28;;;;;;;4.85;2.65;;;;;;;;;;5074746;28;20039;-82
2023/09/25 16:27:54;;;;;;;4.88;3.33;;;;;;;;;;5051358;28;20412;-81
2023/09/25 16:30:20;;;;;;;6.70;3.58;;;;;;;;;;5067808;28;20040;-82
2023/09/25 16:32:45;;;;;;;4.03;2.85;;;;;;;;;;5081236;28;20438;-80
2023/09/25 16:35:12;;;;;;;5.18;2.92;;;;;;;;;;5088465;28;20532;-80
2023/09/25 16:37:37;;;;;;;5.47;2.67;;;;;;;;;;5079215;28;20025;-81
2023/09/25 16:40:03;;;;;;;5.95;3.55;;;;;;;;;;5074390;28;20366;-82
2023/09/25 16:42:29;;;;;;;8.27;4.20;;;;;;;;;;5065364;28;20045;-81
2023/09/25 16:44:54;;;;;;;6.22;3.53;;;;;;;;;;5062916;28;20033;-81
2023/09/25 16:47:20;;;;;;;4.18;2.83;;;;;;;;;;5070643;28;20039;-81
2023/09/25 16:49:45;;;;;;;6.90;2.80;;;;;;;;;;5072240;28;20076;-82
2023/09/25 16:52:10;;;;;;;6.70;4.57;;;;;;;;;;5076314;28;20020;-81
2023/09/25 16:54:36;;;;;;;5.78;4.05;;;;;;;;;;5084943;28;20115;-81
2023/09/25 16:57:01;;;;;;;5.88;3.40;;;;;;;;;;5059474;28;20024;-81
2023/09/25 16:59:27;;;;;;;5.22;3.33;;;;;;;;;;5076468;28;20024;-81
2023/09/25 17:01:52;;;;;;;5.03;3.17;;;;;;;;;;5077351;28;20017;-82
2023/09/25 17:04:18;;;;;;;7.53;3.10;;;;;;;;;;5078945;28;20108;-81
2023/09/25 17:06:43;;;;;;;4.30;2.50;;;;;;;;;;5083955;28;20082;-82
2023/09/25 17:09:09;;;;;;;6.47;4.43;;;;;;;;;;5069340;28;20071;-81
2023/09/25 17:11:36;;;;;;;9.20;3.38;;;;;;;;;;5066425;28;20024;-81
2023/09/25 17:14:01;;;;;;;4.63;1.83;;;;;;;;;;5083197;28;20059;-81
2023/09/25 17:16:30;;;;;;;2.33;1.75;;;;;;;;;;5087454;28;20040;-81
2023/09/25 17:18:57;;;;;;;2.57;2.33;;;;;;;;;;5083774;28;20055;-81
2023/09/25 17:21:22;;;;;;;2.95;2.30;;;;;;;;;;5082400;28;20287;-81
2023/09/25 17:23:47;;;;;;;4.63;2.30;;;;;;;;;;5086632;28;20025;-82
2023/09/25 17:26:13;;;;;;;2.03;1.80;;;;;;;;;;5076900;28;20016;-82
2023/09/25 17:28:38;;;;;;;2.63;1.75;;;;;;;;;;5088514;28;20387;-81
2023/09/25 17:31:07;;;;;;;4.93;2.17;;;;;;;;;;5082590;28;20475;-81
2023/09/25 17:33:33;;;;;;;2.38;1.67;;;;;;;;;;5064237;28;20032;-81
2023/09/25 17:35:58;;;;;;;2.92;1.45;;;;;;;;;;5087944;28;20081;-83
2023/09/25 17:38:26;;;;;;;2.00;1.52;;;;;;;;;;5083011;28;20542;-82
2023/09/25 17:40:51;;;;;;;2.03;1.65;;;;;;;;;;5062515;28;20048;-84
2023/09/25 17:43:18;;;;;;;3.15;2.00;;;;;;;;;;5074629;28;20016;-84
2023/09/25 17:45:43;;;;;;;9.40;2.50;;;;;;;;;;5088525;28;20028;-82
2023/09/25 17:48:08;;;;;;;2.65;1.95;;;;;;;;;;5082588;28;20036;-82
2023/09/25 17:50:34;;;;;;;2.20;1.88;;;;;;;;;;5094414;28;20016;-84
2023/09/25 17:53:00;;;;;;;2.45;1.50;;;;;;;;;;5090221;28;20065;-84
2023/09/25 17:55:26;;;;;;;2.88;2.08;;;;;;;;;;5088645;28;20472;-82
2023/09/25 17:57:51;;;;;;;3.53;1.75;;;;;;;;;;5084201;28;20059;-82
2023/09/25 18:00:18;;;;;;;2.78;1.95;;;;;;;;;;5071559;28;20472;-82
2023/09/25 18:02:44;;;;;;;2.35;1.63;;;;;;;;;;5084438;28;20383;-82
2023/09/25 18:05:09;;;;;;;2.50;1.85;;;;;;;;;;5088469;28;20034;-83
2023/09/25 18:07:35;;;;;;;3.17;1.83;;;;;;;;;;5091451;28;20440;-82
2023/09/25 18:10:01;;;;;;;1.52;1.40;;;;;;;;;;5089759;28;20027;-83
2023/09/25 18:12:26;;;;;;;2.63;2.03;;;;;;;;;;5088117;28;20040;-82
2023/09/25 18:14:52;;;;;;;2.17;1.63;;;;;;;;;;5070141;28;20107;-84
2023/09/25 18:17:17;;;;;;;5.65;2.70;;;;;;;;;;5088287;28;20020;-82
2023/09/25 18:19:43;;;;;;;2.00;1.80;;;;;;;;;;5067924;28;20032;-82
2023/09/25 18:22:08;;;;;;;1.83;1.20;;;;;;;;;;5086667;28;20086;-84
2023/09/25 18:24:33;;;;;;;1.88;1.65;;;;;;;;;;5088962;28;20032;-87
2023/09/25 18:26:59;;;;;;;1.45;1.30;;;;;;;;;;5071781;28;20427;-86
2023/09/25 18:29:24;;;;;;;2.05;1.60;;;;;;;;;;5087590;28;20031;-83
2023/09/25 18:31:50;;;;;;;2.25;1.65;;;;;;;;;;5085161;28;20039;-82
2023/09/25 18:34:17;;;;;;;4.60;1.83;;;;;;;;;;5085271;28;20039;-85
2023/09/25 18:36:42;;;;;;;2.78;1.83;;;;;;;;;;5073071;28;20024;-86
2023/09/25 18:39:08;;;;;;;1.92;1.73;;;;;;;;;;5082642;28;20027;-85
2023/09/25 18:41:33;;;;;;;2.47;1.63;;;;;;;;;;5086994;28;20052;-85
2023/09/25 18:43:59;;;;;;;1.88;1.40;;;;;;;;;;5066428;28;20510;-86
2023/09/25 18:46:27;;;;;;;2.83;1.73;;;;;;;;;;5086348;28;20028;-83
2023/09/25 18:48:53;;;;;;;1.75;1.48;;;;;;;;;;5071039;28;20027;-83
2023/09/25 18:51:22;;;;;;;2.10;1.85;;;;;;;;;;5091632;28;20023;-82
2023/09/25 18:53:50;;;;;;;1.80;1.27;;;;;;;;;;5087972;28;20435;-84
2023/09/25 18:56:19;;;;;;;2.63;1.52;;;;;;;;;;5088143;28;20020;-83
2023/09/25 18:58:45;;;;;;;2.42;1.58;;;;;;;;;;5088247;28;20035;-84
2023/09/25 19:01:10;;;;;;;2.55;1.67;;;;;;;;;;5089612;28;20026;-82
2023/09/25 19:03:35;;;;;;;2.35;1.33;;;;;;;;;;5069153;28;20476;-82
2023/09/25 19:06:01;;;;;;;2.17;1.48;;;;;;;;;;5065968;28;20029;-83
2023/09/25 19:08:27;;;;;;;1.95;1.17;;;;;;;;;;5090090;28;20028;-83
2023/09/25 19:10:52;;;;;;;2.55;1.67;;;;;;;;;;5088134;28;20020;-83
2023/09/25 19:13:21;;;;;;;1.92;1.73;;;;;;;;;;5085672;28;20016;-84
2023/09/25 19:15:47;;;;;;;3.58;2.15;;;;;;;;;;5084264;28;20061;-85
2023/09/25 19:18:13;;;;;;;3.75;2.95;;;;;;;;;;5091332;28;20076;-84
2023/09/25 19:20:38;;;;;;;2.20;1.55;;;;;;;;;;5069497;28;20035;-85